Bartelso, Illinois
Current Conditions -  °F | °C
As of 11:15 AM on Friday 24 Oct 2014 (Local Time) from KENL Reporting Station
Broken Clouds Broken Clouds  
Wind Chill: 16°   Ceiling: 3500
Heat Index: 16°   Visibility: 10mi
Dew Point: 11°   Wind: 0mph
Humidity: 71%   Direction: NA
Pressure: 30.13"   Gusts: NA
Location:  38.54°N, 89.47°W
Report Text: KENL 241615Z AUTO 00000KT 10SM SCT028 BKN035 16/11 A3013 RMK AO2 T01590107
Loading
Personal Weather Stations






























Interactive Weather Map
Tropical Storm Tracking
New forecast layout! Learn more

10-Day Weather Forecast

Advertisements
Track Severe Weather on mobile